Etusivu
METAR-TAF:

METAR-TAF

Lentoasemat :

Chevak, Alaska, Yhdysvallat

Leveyspiiri: 61-32-27N, Pituuspiiri: 165-36-03W, korkeus merenpinnasta: 23 m

Tämänhetkinen sää

Tämä raportti tehtiin 1 tunti ja 17 minuuttia sitten, kello 14.56 UTC
Tuuli 7 kn idästä
Lämpötila 1°C
Kosteus 93%
Ilmanpaine 1003 hPa
Näkyvyys: 6.4 km
Pilvistä 200 ft:n korkeudessa
heikkoa lumisadetta, utua

METAR: PAVA 241456Z AUTO 09007KT 4SM -SN BR OVC002 01/00 A2963 RMK AO2 RAE36SNB36 SLP037 6//// T00060000 56008 FZRANO PNO $

Aika: 08:13 (16:13 UTC)


TAF: puuttuu

Säähavainnot ja -ennusteet yli 4000 lentoasemalta (METAR- ja TAF-raportit).

Käytössä olevat sääasemat on merkitty karttaan keltaisilla ja punaisilla pisteillä.

Aseta hiiri pisteen päälle nähdäksesi sääaseman nimen.

Klikkaa sitten nähdäksesi säähavainnot ja -ennusteet.

Kartan vaihtaminen: klikkaa mustalla rastilla varustettuja vihreitä pisteitä, niin voit zoomata sisään; viivalla varustettua vihreää pistettä, niin voit zoomata ulos tai vihreitä nuolia, niin pääset viereisille kartoille.


METAR-TAF: